sensor_id;sensor_type;location;lat;lon;timestamp;P1;durP1;ratioP1;P2;durP2;ratioP2
71383;SDS011;67558;52.166;5.004;2023-06-22T00:00:38;41.10;;;39.55;;
71383;SDS011;67558;52.166;5.004;2023-06-22T00:03:07;40.00;;;38.42;;
71383;SDS011;67558;52.166;5.004;2023-06-22T00:05:32;39.40;;;37.72;;
71383;SDS011;67558;52.166;5.004;2023-06-22T00:07:57;39.53;;;38.10;;
71383;SDS011;67558;52.166;5.004;2023-06-22T00:10:23;38.70;;;37.20;;
71383;SDS011;67558;52.166;5.004;2023-06-22T00:12:48;39.80;;;38.30;;
71383;SDS011;67558;52.166;5.004;2023-06-22T00:15:13;41.08;;;39.42;;
71383;SDS011;67558;52.166;5.004;2023-06-22T00:17:39;46.45;;;44.75;;
71383;SDS011;67558;52.166;5.004;2023-06-22T00:20:04;39.15;;;37.85;;
71383;SDS011;67558;52.166;5.004;2023-06-22T00:22:31;36.03;;;34.72;;
71383;SDS011;67558;52.166;5.004;2023-06-22T00:24:56;41.28;;;39.78;;
71383;SDS011;67558;52.166;5.004;2023-06-22T00:27:22;41.90;;;40.20;;
71383;SDS011;67558;52.166;5.004;2023-06-22T00:29:47;37.55;;;36.05;;
71383;SDS011;67558;52.166;5.004;2023-06-22T00:32:13;40.40;;;38.90;;
71383;SDS011;67558;52.166;5.004;2023-06-22T00:34:38;39.42;;;37.70;;
71383;SDS011;67558;52.166;5.004;2023-06-22T00:37:03;41.70;;;39.38;;
71383;SDS011;67558;52.166;5.004;2023-06-22T00:39:29;40.95;;;39.45;;
71383;SDS011;67558;52.166;5.004;2023-06-22T00:41:54;38.80;;;37.40;;
71383;SDS011;67558;52.166;5.004;2023-06-22T00:44:20;33.78;;;32.47;;
71383;SDS011;67558;52.166;5.004;2023-06-22T00:46:45;40.25;;;38.75;;
71383;SDS011;67558;52.166;5.004;2023-06-22T00:49:10;41.30;;;39.50;;
71383;SDS011;67558;52.166;5.004;2023-06-22T00:51:37;43.08;;;41.50;;
71383;SDS011;67558;52.166;5.004;2023-06-22T00:54:03;38.40;;;36.80;;
71383;SDS011;67558;52.166;5.004;2023-06-22T00:56:30;37.60;;;35.80;;
71383;SDS011;67558;52.166;5.004;2023-06-22T00:58:55;40.00;;;38.38;;
71383;SDS011;67558;52.166;5.004;2023-06-22T01:01:22;37.97;;;36.38;;
71383;SDS011;67558;52.166;5.004;2023-06-22T01:03:48;39.10;;;37.50;;
71383;SDS011;67558;52.166;5.004;2023-06-22T01:06:15;40.40;;;38.80;;
71383;SDS011;67558;52.166;5.004;2023-06-22T01:08:51;38.85;;;37.38;;
71383;SDS011;67558;52.166;5.004;2023-06-22T01:12:02;40.00;;;38.35;;
71383;SDS011;67558;52.166;5.004;2023-06-22T01:14:40;45.13;;;43.38;;
71383;SDS011;67558;52.166;5.004;2023-06-22T01:17:08;40.88;;;38.90;;
71383;SDS011;67558;52.166;5.004;2023-06-22T01:19:44;38.60;;;37.15;;
71383;SDS011;67558;52.166;5.004;2023-06-22T01:22:19;39.15;;;37.50;;
71383;SDS011;67558;52.166;5.004;2023-06-22T01:30:06;36.58;;;34.78;;
71383;SDS011;67558;52.166;5.004;2023-06-22T01:32:36;40.33;;;38.55;;
71383;SDS011;67558;52.166;5.004;2023-06-22T01:35:04;42.67;;;40.65;;
71383;SDS011;67558;52.166;5.004;2023-06-22T01:37:31;38.97;;;37.08;;
71383;SDS011;67558;52.166;5.004;2023-06-22T01:39:58;38.67;;;36.88;;
71383;SDS011;67558;52.166;5.004;2023-06-22T01:42:24;42.53;;;40.65;;
71383;SDS011;67558;52.166;5.004;2023-06-22T01:44:51;43.78;;;41.83;;
71383;SDS011;67558;52.166;5.004;2023-06-22T01:47:18;37.00;;;35.30;;
71383;SDS011;67558;52.166;5.004;2023-06-22T01:49:45;38.65;;;36.33;;
71383;SDS011;67558;52.166;5.004;2023-06-22T01:52:11;38.40;;;36.47;;
71383;SDS011;67558;52.166;5.004;2023-06-22T01:54:37;39.53;;;37.53;;
71383;SDS011;67558;52.166;5.004;2023-06-22T01:57:03;37.67;;;35.92;;
71383;SDS011;67558;52.166;5.004;2023-06-22T01:59:32;39.78;;;37.38;;
71383;SDS011;67558;52.166;5.004;2023-06-22T02:02:04;42.60;;;40.70;;
71383;SDS011;67558;52.166;5.004;2023-06-22T02:04:37;39.88;;;37.88;;
71383;SDS011;67558;52.166;5.004;2023-06-22T02:07:08;48.47;;;46.20;;
71383;SDS011;67558;52.166;5.004;2023-06-22T02:09:38;39.03;;;37.13;;
71383;SDS011;67558;52.166;5.004;2023-06-22T02:12:12;39.55;;;37.55;;
71383;SDS011;67558;52.166;5.004;2023-06-22T02:14:42;41.03;;;38.75;;
71383;SDS011;67558;52.166;5.004;2023-06-22T02:17:08;37.45;;;35.53;;
71383;SDS011;67558;52.166;5.004;2023-06-22T02:19:37;43.75;;;41.95;;
71383;SDS011;67558;52.166;5.004;2023-06-22T02:22:04;38.63;;;36.80;;
71383;SDS011;67558;52.166;5.004;2023-06-22T02:24:30;41.92;;;39.78;;
71383;SDS011;67558;52.166;5.004;2023-06-22T02:27:00;36.05;;;34.15;;
71383;SDS011;67558;52.166;5.004;2023-06-22T02:29:26;40.65;;;38.53;;
71383;SDS011;67558;52.166;5.004;2023-06-22T02:31:52;37.47;;;35.53;;
71383;SDS011;67558;52.166;5.004;2023-06-22T02:34:19;40.38;;;38.30;;
71383;SDS011;67558;52.166;5.004;2023-06-22T02:36:48;39.67;;;37.55;;
71383;SDS011;67558;52.166;5.004;2023-06-22T02:39:20;35.95;;;34.28;;
71383;SDS011;67558;52.166;5.004;2023-06-22T02:41:48;42.08;;;39.72;;
71383;SDS011;67558;52.166;5.004;2023-06-22T02:44:17;42.50;;;40.22;;
71383;SDS011;67558;52.166;5.004;2023-06-22T02:46:43;36.58;;;34.65;;
71383;SDS011;67558;52.166;5.004;2023-06-22T02:49:09;37.22;;;35.10;;
71383;SDS011;67558;52.166;5.004;2023-06-22T02:51:39;41.42;;;39.30;;
71383;SDS011;67558;52.166;5.004;2023-06-22T02:56:31;36.67;;;34.70;;
71383;SDS011;67558;52.166;5.004;2023-06-22T02:58:57;32.33;;;30.40;;
71383;SDS011;67558;52.166;5.004;2023-06-22T03:01:29;42.35;;;39.83;;
71383;SDS011;67558;52.166;5.004;2023-06-22T03:03:58;42.00;;;39.50;;
71383;SDS011;67558;52.166;5.004;2023-06-22T03:06:23;41.88;;;39.67;;
71383;SDS011;67558;52.166;5.004;2023-06-22T03:08:53;37.60;;;35.30;;
71383;SDS011;67558;52.166;5.004;2023-06-22T03:11:21;37.67;;;35.17;;
71383;SDS011;67558;52.166;5.004;2023-06-22T03:13:47;39.92;;;37.50;;
71383;SDS011;67558;52.166;5.004;2023-06-22T03:16:12;38.85;;;36.65;;
71383;SDS011;67558;52.166;5.004;2023-06-22T03:18:37;36.03;;;34.30;;
71383;SDS011;67558;52.166;5.004;2023-06-22T03:21:02;38.72;;;36.70;;
71383;SDS011;67558;52.166;5.004;2023-06-22T03:23:28;44.78;;;42.60;;
71383;SDS011;67558;52.166;5.004;2023-06-22T03:25:53;39.22;;;36.90;;
71383;SDS011;67558;52.166;5.004;2023-06-22T03:28:20;44.30;;;42.20;;
71383;SDS011;67558;52.166;5.004;2023-06-22T03:30:46;41.60;;;39.28;;
71383;SDS011;67558;52.166;5.004;2023-06-22T03:33:11;37.08;;;34.83;;
71383;SDS011;67558;52.166;5.004;2023-06-22T03:35:37;38.97;;;36.92;;
71383;SDS011;67558;52.166;5.004;2023-06-22T03:38:03;36.38;;;34.33;;
71383;SDS011;67558;52.166;5.004;2023-06-22T03:40:29;40.70;;;38.67;;
71383;SDS011;67558;52.166;5.004;2023-06-22T03:42:54;39.10;;;36.90;;
71383;SDS011;67558;52.166;5.004;2023-06-22T03:45:20;36.60;;;34.38;;
71383;SDS011;67558;52.166;5.004;2023-06-22T03:47:45;41.90;;;39.40;;
71383;SDS011;67558;52.166;5.004;2023-06-22T03:50:10;36.00;;;33.95;;
71383;SDS011;67558;52.166;5.004;2023-06-22T03:52:36;41.15;;;38.85;;
71383;SDS011;67558;52.166;5.004;2023-06-22T03:55:01;37.67;;;35.45;;
71383;SDS011;67558;52.166;5.004;2023-06-22T03:57:26;36.78;;;34.65;;
71383;SDS011;67558;52.166;5.004;2023-06-22T03:59:54;36.13;;;33.72;;
71383;SDS011;67558;52.166;5.004;2023-06-22T04:02:21;39.42;;;37.22;;
71383;SDS011;67558;52.166;5.004;2023-06-22T04:04:46;44.45;;;41.95;;
71383;SDS011;67558;52.166;5.004;2023-06-22T04:07:12;37.75;;;35.47;;
71383;SDS011;67558;52.166;5.004;2023-06-22T04:09:37;40.20;;;38.03;;
71383;SDS011;67558;52.166;5.004;2023-06-22T04:12:02;38.63;;;36.25;;
71383;SDS011;67558;52.166;5.004;2023-06-22T04:14:28;41.28;;;38.78;;
71383;SDS011;67558;52.166;5.004;2023-06-22T04:16:53;39.22;;;36.78;;
71383;SDS011;67558;52.166;5.004;2023-06-22T04:19:19;38.75;;;36.45;;
71383;SDS011;67558;52.166;5.004;2023-06-22T04:21:44;37.72;;;35.47;;
71383;SDS011;67558;52.166;5.004;2023-06-22T04:24:10;40.85;;;38.28;;
71383;SDS011;67558;52.166;5.004;2023-06-22T04:26:36;41.55;;;38.95;;
71383;SDS011;67558;52.166;5.004;2023-06-22T04:29:05;42.15;;;39.63;;
71383;SDS011;67558;52.166;5.004;2023-06-22T04:31:31;38.05;;;35.70;;
71383;SDS011;67558;52.166;5.004;2023-06-22T04:33:57;42.15;;;39.47;;
71383;SDS011;67558;52.166;5.004;2023-06-22T04:36:31;39.35;;;36.72;;
71383;SDS011;67558;52.166;5.004;2023-06-22T04:39:02;44.63;;;41.85;;
71383;SDS011;67558;52.166;5.004;2023-06-22T04:41:29;39.35;;;36.83;;
71383;SDS011;67558;52.166;5.004;2023-06-22T04:43:54;38.70;;;36.38;;
71383;SDS011;67558;52.166;5.004;2023-06-22T04:46:24;45.75;;;43.15;;
71383;SDS011;67558;52.166;5.004;2023-06-22T04:48:50;43.47;;;40.50;;
71383;SDS011;67558;52.166;5.004;2023-06-22T04:51:15;41.08;;;38.53;;
71383;SDS011;67558;52.166;5.004;2023-06-22T04:53:41;42.92;;;40.38;;
71383;SDS011;67558;52.166;5.004;2023-06-22T04:56:06;47.20;;;44.20;;
71383;SDS011;67558;52.166;5.004;2023-06-22T04:58:31;42.58;;;40.05;;
71383;SDS011;67558;52.166;5.004;2023-06-22T05:00:57;43.10;;;40.40;;
71383;SDS011;67558;52.166;5.004;2023-06-22T05:03:24;45.95;;;43.15;;
71383;SDS011;67558;52.166;5.004;2023-06-22T05:05:51;44.05;;;41.28;;
71383;SDS011;67558;52.166;5.004;2023-06-22T05:08:17;42.53;;;39.75;;
71383;SDS011;67558;52.166;5.004;2023-06-22T05:10:42;47.25;;;44.40;;
71383;SDS011;67558;52.166;5.004;2023-06-22T05:13:08;44.55;;;41.75;;
71383;SDS011;67558;52.166;5.004;2023-06-22T05:15:33;49.13;;;46.33;;
71383;SDS011;67558;52.166;5.004;2023-06-22T05:18:04;49.72;;;46.72;;
71383;SDS011;67558;52.166;5.004;2023-06-22T05:20:30;47.22;;;43.92;;
71383;SDS011;67558;52.166;5.004;2023-06-22T05:22:55;44.25;;;41.17;;
71383;SDS011;67558;52.166;5.004;2023-06-22T05:25:21;46.38;;;43.05;;
71383;SDS011;67558;52.166;5.004;2023-06-22T05:27:46;47.85;;;44.67;;
71383;SDS011;67558;52.166;5.004;2023-06-22T05:30:12;49.58;;;46.08;;
71383;SDS011;67558;52.166;5.004;2023-06-22T05:32:37;47.78;;;44.33;;
71383;SDS011;67558;52.166;5.004;2023-06-22T05:35:03;46.03;;;42.70;;
71383;SDS011;67558;52.166;5.004;2023-06-22T05:37:30;45.88;;;42.60;;
71383;SDS011;67558;52.166;5.004;2023-06-22T05:39:55;53.42;;;50.10;;
71383;SDS011;67558;52.166;5.004;2023-06-22T05:42:22;55.38;;;51.92;;
71383;SDS011;67558;52.166;5.004;2023-06-22T05:44:47;51.88;;;48.17;;
71383;SDS011;67558;52.166;5.004;2023-06-22T05:47:13;50.75;;;47.13;;
71383;SDS011;67558;52.166;5.004;2023-06-22T05:49:38;53.38;;;49.40;;
71383;SDS011;67558;52.166;5.004;2023-06-22T05:52:04;55.78;;;52.22;;
71383;SDS011;67558;52.166;5.004;2023-06-22T05:54:29;53.25;;;49.45;;
71383;SDS011;67558;52.166;5.004;2023-06-22T05:56:55;49.75;;;46.03;;
71383;SDS011;67558;52.166;5.004;2023-06-22T05:59:21;54.63;;;50.83;;
71383;SDS011;67558;52.166;5.004;2023-06-22T06:01:46;53.05;;;49.38;;
71383;SDS011;67558;52.166;5.004;2023-06-22T06:04:16;56.05;;;52.33;;
71383;SDS011;67558;52.166;5.004;2023-06-22T06:06:42;52.72;;;48.92;;
71383;SDS011;67558;52.166;5.004;2023-06-22T06:09:08;55.70;;;51.85;;
71383;SDS011;67558;52.166;5.004;2023-06-22T06:11:33;53.28;;;49.45;;
71383;SDS011;67558;52.166;5.004;2023-06-22T06:13:58;55.10;;;51.40;;
71383;SDS011;67558;52.166;5.004;2023-06-22T06:16:24;56.72;;;52.58;;
71383;SDS011;67558;52.166;5.004;2023-06-22T06:18:49;57.58;;;53.40;;
71383;SDS011;67558;52.166;5.004;2023-06-22T06:21:15;62.75;;;58.67;;
71383;SDS011;67558;52.166;5.004;2023-06-22T06:23:41;59.53;;;55.35;;
71383;SDS011;67558;52.166;5.004;2023-06-22T06:26:07;58.58;;;54.58;;
71383;SDS011;67558;52.166;5.004;2023-06-22T06:28:32;55.78;;;51.80;;
71383;SDS011;67558;52.166;5.004;2023-06-22T06:30:58;59.45;;;55.08;;
71383;SDS011;67558;52.166;5.004;2023-06-22T06:33:24;55.00;;;50.63;;
71383;SDS011;67558;52.166;5.004;2023-06-22T06:35:49;57.13;;;53.33;;
71383;SDS011;67558;52.166;5.004;2023-06-22T06:38:15;61.42;;;57.38;;
71383;SDS011;67558;52.166;5.004;2023-06-22T06:40:40;62.97;;;58.63;;
71383;SDS011;67558;52.166;5.004;2023-06-22T06:43:06;57.80;;;53.80;;
71383;SDS011;67558;52.166;5.004;2023-06-22T06:45:31;61.03;;;56.90;;
71383;SDS011;67558;52.166;5.004;2023-06-22T06:47:59;59.60;;;55.65;;
71383;SDS011;67558;52.166;5.004;2023-06-22T06:50:24;63.15;;;58.88;;
71383;SDS011;67558;52.166;5.004;2023-06-22T06:52:50;65.35;;;61.22;;
71383;SDS011;67558;52.166;5.004;2023-06-22T06:55:15;58.45;;;54.70;;
71383;SDS011;67558;52.166;5.004;2023-06-22T06:57:41;62.47;;;58.25;;
71383;SDS011;67558;52.166;5.004;2023-06-22T07:00:08;58.17;;;53.92;;
71383;SDS011;67558;52.166;5.004;2023-06-22T07:02:42;62.47;;;58.53;;
71383;SDS011;67558;52.166;5.004;2023-06-22T07:05:12;60.88;;;57.20;;
71383;SDS011;67558;52.166;5.004;2023-06-22T07:07:38;67.15;;;63.22;;
71383;SDS011;67558;52.166;5.004;2023-06-22T07:10:04;57.28;;;53.40;;
71383;SDS011;67558;52.166;5.004;2023-06-22T07:12:30;60.58;;;56.90;;
71383;SDS011;67558;52.166;5.004;2023-06-22T07:15:02;56.85;;;53.13;;
71383;SDS011;67558;52.166;5.004;2023-06-22T07:17:30;58.13;;;54.42;;
71383;SDS011;67558;52.166;5.004;2023-06-22T07:19:55;65.90;;;61.92;;
71383;SDS011;67558;52.166;5.004;2023-06-22T07:22:20;57.38;;;53.75;;
71383;SDS011;67558;52.166;5.004;2023-06-22T07:24:46;63.13;;;59.45;;
71383;SDS011;67558;52.166;5.004;2023-06-22T07:27:11;59.15;;;55.53;;
71383;SDS011;67558;52.166;5.004;2023-06-22T07:29:37;62.97;;;58.97;;
71383;SDS011;67558;52.166;5.004;2023-06-22T07:32:05;62.08;;;58.38;;
71383;SDS011;67558;52.166;5.004;2023-06-22T07:34:31;62.58;;;59.10;;
71383;SDS011;67558;52.166;5.004;2023-06-22T07:36:56;62.80;;;58.83;;
71383;SDS011;67558;52.166;5.004;2023-06-22T07:39:22;62.05;;;58.05;;
71383;SDS011;67558;52.166;5.004;2023-06-22T07:41:50;58.40;;;54.88;;
71383;SDS011;67558;52.166;5.004;2023-06-22T07:44:16;66.32;;;62.35;;
71383;SDS011;67558;52.166;5.004;2023-06-22T07:46:41;65.55;;;61.75;;
71383;SDS011;67558;52.166;5.004;2023-06-22T07:49:07;58.63;;;55.30;;
71383;SDS011;67558;52.166;5.004;2023-06-22T07:51:33;63.40;;;59.97;;
71383;SDS011;67558;52.166;5.004;2023-06-22T07:53:58;62.42;;;59.03;;
71383;SDS011;67558;52.166;5.004;2023-06-22T07:56:24;74.70;;;70.82;;
71383;SDS011;67558;52.166;5.004;2023-06-22T07:58:49;60.47;;;57.20;;
71383;SDS011;67558;52.166;5.004;2023-06-22T08:01:15;74.65;;;71.35;;
71383;SDS011;67558;52.166;5.004;2023-06-22T08:03:40;62.03;;;58.65;;
71383;SDS011;67558;52.166;5.004;2023-06-22T08:06:06;61.35;;;58.22;;
71383;SDS011;67558;52.166;5.004;2023-06-22T08:08:34;67.22;;;64.10;;
71383;SDS011;67558;52.166;5.004;2023-06-22T08:11:00;66.25;;;62.22;;
71383;SDS011;67558;52.166;5.004;2023-06-22T08:13:25;60.85;;;57.92;;
71383;SDS011;67558;52.166;5.004;2023-06-22T08:15:51;64.30;;;61.00;;
71383;SDS011;67558;52.166;5.004;2023-06-22T08:18:16;58.80;;;55.75;;
71383;SDS011;67558;52.166;5.004;2023-06-22T08:20:41;58.50;;;55.63;;
71383;SDS011;67558;52.166;5.004;2023-06-22T08:23:10;65.50;;;62.50;;
71383;SDS011;67558;52.166;5.004;2023-06-22T08:25:35;64.85;;;61.60;;
71383;SDS011;67558;52.166;5.004;2023-06-22T08:28:04;67.18;;;64.03;;
71383;SDS011;67558;52.166;5.004;2023-06-22T08:30:30;63.13;;;60.42;;
71383;SDS011;67558;52.166;5.004;2023-06-22T08:32:55;64.57;;;61.60;;
71383;SDS011;67558;52.166;5.004;2023-06-22T08:35:24;61.90;;;59.25;;
71383;SDS011;67558;52.166;5.004;2023-06-22T08:37:50;63.35;;;60.70;;
71383;SDS011;67558;52.166;5.004;2023-06-22T08:40:18;60.50;;;58.13;;
71383;SDS011;67558;52.166;5.004;2023-06-22T08:42:45;64.25;;;61.28;;
71383;SDS011;67558;52.166;5.004;2023-06-22T08:45:11;66.15;;;63.10;;
71383;SDS011;67558;52.166;5.004;2023-06-22T08:47:36;68.97;;;65.90;;
71383;SDS011;67558;52.166;5.004;2023-06-22T08:50:01;66.53;;;63.72;;
71383;SDS011;67558;52.166;5.004;2023-06-22T08:52:28;63.45;;;60.75;;
71383;SDS011;67558;52.166;5.004;2023-06-22T08:54:53;66.90;;;64.10;;
71383;SDS011;67558;52.166;5.004;2023-06-22T08:57:19;67.10;;;64.18;;
71383;SDS011;67558;52.166;5.004;2023-06-22T08:59:46;67.82;;;64.93;;
71383;SDS011;67558;52.166;5.004;2023-06-22T09:02:11;69.07;;;66.20;;
71383;SDS011;67558;52.166;5.004;2023-06-22T09:04:36;64.45;;;61.60;;
71383;SDS011;67558;52.166;5.004;2023-06-22T09:07:02;65.63;;;62.95;;
71383;SDS011;67558;52.166;5.004;2023-06-22T09:09:28;69.35;;;66.35;;
71383;SDS011;67558;52.166;5.004;2023-06-22T09:11:53;65.20;;;62.10;;
71383;SDS011;67558;52.166;5.004;2023-06-22T09:14:19;63.25;;;60.55;;
71383;SDS011;67558;52.166;5.004;2023-06-22T09:16:44;68.97;;;66.13;;
71383;SDS011;67558;52.166;5.004;2023-06-22T09:19:10;66.00;;;63.08;;
71383;SDS011;67558;52.166;5.004;2023-06-22T09:21:35;67.78;;;64.78;;
71383;SDS011;67558;52.166;5.004;2023-06-22T09:24:01;65.32;;;62.35;;
71383;SDS011;67558;52.166;5.004;2023-06-22T09:26:27;71.85;;;68.90;;
71383;SDS011;67558;52.166;5.004;2023-06-22T09:28:52;63.75;;;60.92;;
71383;SDS011;67558;52.166;5.004;2023-06-22T09:31:18;71.25;;;68.05;;
71383;SDS011;67558;52.166;5.004;2023-06-22T09:33:50;67.85;;;64.75;;
71383;SDS011;67558;52.166;5.004;2023-06-22T09:36:17;62.92;;;60.00;;
71383;SDS011;67558;52.166;5.004;2023-06-22T09:38:42;65.00;;;62.10;;
71383;SDS011;67558;52.166;5.004;2023-06-22T09:41:07;69.53;;;66.50;;
71383;SDS011;67558;52.166;5.004;2023-06-22T09:43:33;68.38;;;65.70;;
71383;SDS011;67558;52.166;5.004;2023-06-22T09:46:01;66.20;;;63.33;;
71383;SDS011;67558;52.166;5.004;2023-06-22T09:48:27;73.68;;;70.88;;
71383;SDS011;67558;52.166;5.004;2023-06-22T09:50:54;67.72;;;64.88;;
71383;SDS011;67558;52.166;5.004;2023-06-22T09:53:20;73.30;;;70.28;;
71383;SDS011;67558;52.166;5.004;2023-06-22T09:55:46;71.65;;;68.60;;
71383;SDS011;67558;52.166;5.004;2023-06-22T09:58:11;66.53;;;63.90;;
71383;SDS011;67558;52.166;5.004;2023-06-22T10:00:37;69.80;;;67.25;;
71383;SDS011;67558;52.166;5.004;2023-06-22T10:03:02;66.60;;;63.95;;
71383;SDS011;67558;52.166;5.004;2023-06-22T10:05:27;66.05;;;63.53;;
71383;SDS011;67558;52.166;5.004;2023-06-22T10:07:53;62.45;;;60.15;;
71383;SDS011;67558;52.166;5.004;2023-06-22T10:10:18;60.70;;;58.33;;
71383;SDS011;67558;52.166;5.004;2023-06-22T10:12:48;61.22;;;58.92;;
71383;SDS011;67558;52.166;5.004;2023-06-22T10:15:20;62.80;;;60.58;;
71383;SDS011;67558;52.166;5.004;2023-06-22T10:17:46;59.83;;;57.80;;
71383;SDS011;67558;52.166;5.004;2023-06-22T10:20:12;64.18;;;62.05;;
71383;SDS011;67558;52.166;5.004;2023-06-22T10:22:41;62.10;;;60.08;;
71383;SDS011;67558;52.166;5.004;2023-06-22T10:25:08;61.85;;;59.72;;
71383;SDS011;67558;52.166;5.004;2023-06-22T10:27:34;65.40;;;63.10;;
71383;SDS011;67558;52.166;5.004;2023-06-22T10:29:59;56.22;;;54.33;;
71383;SDS011;67558;52.166;5.004;2023-06-22T10:32:25;60.58;;;58.60;;
71383;SDS011;67558;52.166;5.004;2023-06-22T10:34:50;58.95;;;56.88;;
71383;SDS011;67558;52.166;5.004;2023-06-22T10:37:16;64.63;;;62.38;;
71383;SDS011;67558;52.166;5.004;2023-06-22T10:39:41;64.63;;;62.45;;
71383;SDS011;67558;52.166;5.004;2023-06-22T10:42:06;59.10;;;56.80;;
71383;SDS011;67558;52.166;5.004;2023-06-22T10:44:32;58.80;;;56.35;;
71383;SDS011;67558;52.166;5.004;2023-06-22T10:46:57;68.38;;;66.00;;
71383;SDS011;67558;52.166;5.004;2023-06-22T10:49:23;58.67;;;56.63;;
71383;SDS011;67558;52.166;5.004;2023-06-22T10:51:48;63.85;;;61.67;;
71383;SDS011;67558;52.166;5.004;2023-06-22T10:54:14;58.55;;;56.28;;
71383;SDS011;67558;52.166;5.004;2023-06-22T10:56:42;61.72;;;59.60;;
71383;SDS011;67558;52.166;5.004;2023-06-22T10:59:07;64.43;;;62.20;;
71383;SDS011;67558;52.166;5.004;2023-06-22T11:01:33;54.33;;;52.33;;
71383;SDS011;67558;52.166;5.004;2023-06-22T11:03:58;55.72;;;53.80;;
71383;SDS011;67558;52.166;5.004;2023-06-22T11:06:23;70.53;;;68.30;;
71383;SDS011;67558;52.166;5.004;2023-06-22T11:08:49;58.20;;;55.78;;
71383;SDS011;67558;52.166;5.004;2023-06-22T11:11:15;70.95;;;68.25;;
71383;SDS011;67558;52.166;5.004;2023-06-22T11:13:42;58.75;;;56.50;;
71383;SDS011;67558;52.166;5.004;2023-06-22T11:16:09;70.30;;;67.75;;
71383;SDS011;67558;52.166;5.004;2023-06-22T11:18:35;60.40;;;58.15;;
71383;SDS011;67558;52.166;5.004;2023-06-22T11:21:01;54.28;;;52.15;;
71383;SDS011;67558;52.166;5.004;2023-06-22T11:23:26;63.60;;;61.13;;
71383;SDS011;67558;52.166;5.004;2023-06-22T11:25:52;57.30;;;54.88;;
71383;SDS011;67558;52.166;5.004;2023-06-22T11:28:18;61.58;;;58.80;;
71383;SDS011;67558;52.166;5.004;2023-06-22T11:30:43;58.08;;;55.75;;
71383;SDS011;67558;52.166;5.004;2023-06-22T11:33:09;63.55;;;61.05;;
71383;SDS011;67558;52.166;5.004;2023-06-22T11:35:34;61.25;;;58.75;;
71383;SDS011;67558;52.166;5.004;2023-06-22T11:37:59;52.83;;;50.70;;
71383;SDS011;67558;52.166;5.004;2023-06-22T11:40:25;61.13;;;58.67;;
71383;SDS011;67558;52.166;5.004;2023-06-22T11:42:50;55.10;;;52.55;;
71383;SDS011;67558;52.166;5.004;2023-06-22T11:45:16;60.90;;;58.60;;
71383;SDS011;67558;52.166;5.004;2023-06-22T11:47:43;62.65;;;60.33;;
71383;SDS011;67558;52.166;5.004;2023-06-22T11:50:08;60.88;;;58.58;;
71383;SDS011;67558;52.166;5.004;2023-06-22T11:52:34;67.00;;;64.13;;
71383;SDS011;67558;52.166;5.004;2023-06-22T11:55:01;55.63;;;53.42;;
71383;SDS011;67558;52.166;5.004;2023-06-22T11:57:28;55.75;;;53.42;;
71383;SDS011;67558;52.166;5.004;2023-06-22T11:59:54;62.35;;;59.92;;
71383;SDS011;67558;52.166;5.004;2023-06-22T12:02:19;58.88;;;56.50;;
71383;SDS011;67558;52.166;5.004;2023-06-22T12:04:44;56.28;;;54.25;;
71383;SDS011;67558;52.166;5.004;2023-06-22T12:07:10;63.03;;;60.63;;
71383;SDS011;67558;52.166;5.004;2023-06-22T12:09:35;57.47;;;55.33;;
71383;SDS011;67558;52.166;5.004;2023-06-22T12:12:01;55.58;;;53.47;;
71383;SDS011;67558;52.166;5.004;2023-06-22T12:14:26;53.63;;;51.50;;
71383;SDS011;67558;52.166;5.004;2023-06-22T12:16:51;54.22;;;52.22;;
71383;SDS011;67558;52.166;5.004;2023-06-22T12:19:17;62.10;;;59.95;;
71383;SDS011;67558;52.166;5.004;2023-06-22T12:21:42;60.58;;;58.42;;
71383;SDS011;67558;52.166;5.004;2023-06-22T12:24:10;66.82;;;64.43;;
71383;SDS011;67558;52.166;5.004;2023-06-22T12:26:36;53.80;;;51.67;;
71383;SDS011;67558;52.166;5.004;2023-06-22T12:29:01;61.88;;;59.65;;
71383;SDS011;67558;52.166;5.004;2023-06-22T12:31:27;55.97;;;53.83;;
71383;SDS011;67558;52.166;5.004;2023-06-22T12:33:52;59.33;;;57.03;;
71383;SDS011;67558;52.166;5.004;2023-06-22T12:36:17;52.85;;;50.65;;
71383;SDS011;67558;52.166;5.004;2023-06-22T12:38:43;59.42;;;57.20;;
71383;SDS011;67558;52.166;5.004;2023-06-22T12:41:08;53.95;;;51.53;;
71383;SDS011;67558;52.166;5.004;2023-06-22T12:43:34;58.45;;;55.83;;
71383;SDS011;67558;52.166;5.004;2023-06-22T12:45:59;53.47;;;51.17;;
71383;SDS011;67558;52.166;5.004;2023-06-22T12:48:25;56.88;;;54.45;;
71383;SDS011;67558;52.166;5.004;2023-06-22T12:50:52;58.45;;;55.97;;
71383;SDS011;67558;52.166;5.004;2023-06-22T12:53:17;60.42;;;57.95;;
71383;SDS011;67558;52.166;5.004;2023-06-22T12:55:43;58.67;;;56.25;;
71383;SDS011;67558;52.166;5.004;2023-06-22T12:58:08;62.10;;;59.53;;
71383;SDS011;67558;52.166;5.004;2023-06-22T13:00:33;60.65;;;57.45;;
71383;SDS011;67558;52.166;5.004;2023-06-22T13:02:59;62.20;;;58.80;;
71383;SDS011;67558;52.166;5.004;2023-06-22T13:05:24;60.33;;;57.42;;
71383;SDS011;67558;52.166;5.004;2023-06-22T13:07:50;56.95;;;54.22;;
71383;SDS011;67558;52.166;5.004;2023-06-22T13:10:15;69.97;;;67.00;;
71383;SDS011;67558;52.166;5.004;2023-06-22T13:12:40;57.03;;;54.28;;
71383;SDS011;67558;52.166;5.004;2023-06-22T13:15:06;60.17;;;57.20;;
71383;SDS011;67558;52.166;5.004;2023-06-22T13:17:31;61.42;;;58.67;;
71383;SDS011;67558;52.166;5.004;2023-06-22T13:19:57;62.15;;;59.00;;
71383;SDS011;67558;52.166;5.004;2023-06-22T13:24:55;58.63;;;55.65;;
71383;SDS011;67558;52.166;5.004;2023-06-22T13:27:21;60.08;;;57.42;;
71383;SDS011;67558;52.166;5.004;2023-06-22T13:29:46;68.10;;;65.18;;
71383;SDS011;67558;52.166;5.004;2023-06-22T13:32:12;60.42;;;57.00;;
71383;SDS011;67558;52.166;5.004;2023-06-22T13:34:37;56.78;;;53.85;;
71383;SDS011;67558;52.166;5.004;2023-06-22T13:37:02;60.67;;;58.25;;
71383;SDS011;67558;52.166;5.004;2023-06-22T13:39:28;60.88;;;57.60;;
71383;SDS011;67558;52.166;5.004;2023-06-22T13:41:53;58.00;;;55.38;;
71383;SDS011;67558;52.166;5.004;2023-06-22T13:44:19;54.58;;;52.17;;
71383;SDS011;67558;52.166;5.004;2023-06-22T13:46:46;57.75;;;55.13;;
71383;SDS011;67558;52.166;5.004;2023-06-22T13:49:11;55.17;;;52.85;;
71383;SDS011;67558;52.166;5.004;2023-06-22T13:51:37;50.10;;;48.10;;
71383;SDS011;67558;52.166;5.004;2023-06-22T13:54:02;49.65;;;47.55;;
71383;SDS011;67558;52.166;5.004;2023-06-22T13:56:28;55.63;;;53.25;;
71383;SDS011;67558;52.166;5.004;2023-06-22T13:58:53;51.15;;;49.08;;
71383;SDS011;67558;52.166;5.004;2023-06-22T14:01:18;59.65;;;57.30;;
71383;SDS011;67558;52.166;5.004;2023-06-22T14:03:44;52.80;;;50.35;;
71383;SDS011;67558;52.166;5.004;2023-06-22T14:06:11;52.20;;;49.97;;
71383;SDS011;67558;52.166;5.004;2023-06-22T14:08:37;52.97;;;50.78;;
71383;SDS011;67558;52.166;5.004;2023-06-22T14:11:02;58.50;;;56.03;;
71383;SDS011;67558;52.166;5.004;2023-06-22T14:13:28;52.97;;;50.50;;
71383;SDS011;67558;52.166;5.004;2023-06-22T14:15:53;54.38;;;52.20;;
71383;SDS011;67558;52.166;5.004;2023-06-22T14:18:19;50.20;;;48.05;;
71383;SDS011;67558;52.166;5.004;2023-06-22T14:20:47;49.47;;;47.28;;
71383;SDS011;67558;52.166;5.004;2023-06-22T14:23:13;52.80;;;50.72;;
71383;SDS011;67558;52.166;5.004;2023-06-22T14:25:39;50.53;;;48.53;;